sensor_id;sensor_type;location;lat;lon;timestamp;temperature;humidity
4374;DHT22;2201;51.100;6.814;2023-03-23T06:22:40;12.70;98.20
4374;DHT22;2201;51.100;6.814;2023-03-23T06:25:08;12.70;98.20
4374;DHT22;2201;51.100;6.814;2023-03-23T06:27:36;12.80;98.20
4374;DHT22;2201;51.100;6.814;2023-03-23T06:30:05;12.80;98.20
4374;DHT22;2201;51.100;6.814;2023-03-23T06:32:32;12.80;98.20
4374;DHT22;2201;51.100;6.814;2023-03-23T06:34:59;12.90;98.20
4374;DHT22;2201;51.100;6.814;2023-03-23T06:37:26;12.90;98.20
4374;DHT22;2201;51.100;6.814;2023-03-23T06:39:54;12.90;98.20
4374;DHT22;2201;51.100;6.814;2023-03-23T06:42:22;12.90;98.20
4374;DHT22;2201;51.100;6.814;2023-03-23T06:44:50;13.00;98.20
4374;DHT22;2201;51.100;6.814;2023-03-23T06:47:17;13.00;98.20
4374;DHT22;2201;51.100;6.814;2023-03-23T06:49:43;13.00;98.20
4374;DHT22;2201;51.100;6.814;2023-03-23T06:52:10;13.00;98.20
4374;DHT22;2201;51.100;6.814;2023-03-23T06:54:37;13.10;98.20
4374;DHT22;2201;51.100;6.814;2023-03-23T06:57:05;13.10;98.20
4374;DHT22;2201;51.100;6.814;2023-03-23T06:59:32;13.10;98.20
4374;DHT22;2201;51.100;6.814;2023-03-23T07:01:59;13.10;98.20
4374;DHT22;2201;51.100;6.814;2023-03-23T07:04:25;13.10;98.20
4374;DHT22;2201;51.100;6.814;2023-03-23T07:06:52;13.20;98.20
4374;DHT22;2201;51.100;6.814;2023-03-23T07:09:19;13.20;98.20
4374;DHT22;2201;51.100;6.814;2023-03-23T07:11:46;13.20;98.20
4374;DHT22;2201;51.100;6.814;2023-03-23T07:14:15;13.20;98.20
4374;DHT22;2201;51.100;6.814;2023-03-23T07:16:42;13.20;98.20
4374;DHT22;2201;51.100;6.814;2023-03-23T07:19:09;13.30;98.20
4374;DHT22;2201;51.100;6.814;2023-03-23T07:21:36;13.30;98.20
4374;DHT22;2201;51.100;6.814;2023-03-23T07:24:03;13.30;98.20
4374;DHT22;2201;51.100;6.814;2023-03-23T07:26:30;13.30;98.20
4374;DHT22;2201;51.100;6.814;2023-03-23T07:28:57;13.40;98.20
4374;DHT22;2201;51.100;6.814;2023-03-23T07:31:25;13.40;98.20
4374;DHT22;2201;51.100;6.814;2023-03-23T07:33:52;13.40;98.20
4374;DHT22;2201;51.100;6.814;2023-03-23T07:36:19;13.40;98.20
4374;DHT22;2201;51.100;6.814;2023-03-23T07:38:45;13.50;98.20
4374;DHT22;2201;51.100;6.814;2023-03-23T07:41:13;13.50;98.20
4374;DHT22;2201;51.100;6.814;2023-03-23T07:43:40;13.50;98.20
4374;DHT22;2201;51.100;6.814;2023-03-23T07:46:07;13.50;98.20
4374;DHT22;2201;51.100;6.814;2023-03-23T07:48:35;13.60;98.20
4374;DHT22;2201;51.100;6.814;2023-03-23T07:51:03;13.60;98.20
4374;DHT22;2201;51.100;6.814;2023-03-23T07:53:30;13.60;98.20
4374;DHT22;2201;51.100;6.814;2023-03-23T07:55:57;13.70;98.20
4374;DHT22;2201;51.100;6.814;2023-03-23T07:58:24;13.70;98.20
4374;DHT22;2201;51.100;6.814;2023-03-23T08:00:52;13.80;98.20
4374;DHT22;2201;51.100;6.814;2023-03-23T08:03:19;13.80;98.20
4374;DHT22;2201;51.100;6.814;2023-03-23T08:05:47;13.80;98.20
4374;DHT22;2201;51.100;6.814;2023-03-23T08:08:15;13.80;98.20
4374;DHT22;2201;51.100;6.814;2023-03-23T08:10:42;13.80;98.20
4374;DHT22;2201;51.100;6.814;2023-03-23T08:13:09;13.90;98.20
4374;DHT22;2201;51.100;6.814;2023-03-23T08:15:35;13.90;98.20
4374;DHT22;2201;51.100;6.814;2023-03-23T08:18:03;14.00;98.20
4374;DHT22;2201;51.100;6.814;2023-03-23T08:20:31;14.00;98.20
4374;DHT22;2201;51.100;6.814;2023-03-23T08:22:59;14.10;98.20
4374;DHT22;2201;51.100;6.814;2023-03-23T08:25:28;14.10;98.20
4374;DHT22;2201;51.100;6.814;2023-03-23T08:27:57;14.10;98.20
4374;DHT22;2201;51.100;6.814;2023-03-23T08:30:24;14.20;98.20
4374;DHT22;2201;51.100;6.814;2023-03-23T08:32:52;14.20;98.20
4374;DHT22;2201;51.100;6.814;2023-03-23T08:35:19;14.20;98.20
4374;DHT22;2201;51.100;6.814;2023-03-23T08:37:46;14.30;98.20
4374;DHT22;2201;51.100;6.814;2023-03-23T08:40:20;14.40;98.20
4374;DHT22;2201;51.100;6.814;2023-03-23T08:42:49;14.40;98.20
4374;DHT22;2201;51.100;6.814;2023-03-23T08:45:17;14.50;98.20
4374;DHT22;2201;51.100;6.814;2023-03-23T08:47:44;14.50;98.20
4374;DHT22;2201;51.100;6.814;2023-03-23T08:50:14;14.50;98.20
4374;DHT22;2201;51.100;6.814;2023-03-23T08:52:41;14.60;98.20
4374;DHT22;2201;51.100;6.814;2023-03-23T08:55:09;14.70;98.20
4374;DHT22;2201;51.100;6.814;2023-03-23T08:57:38;14.80;98.20
4374;DHT22;2201;51.100;6.814;2023-03-23T09:00:07;14.90;98.20
4374;DHT22;2201;51.100;6.814;2023-03-23T09:02:40;14.90;98.20
4374;DHT22;2201;51.100;6.814;2023-03-23T09:05:08;15.00;98.20
4374;DHT22;2201;51.100;6.814;2023-03-23T09:07:35;15.10;98.20
4374;DHT22;2201;51.100;6.814;2023-03-23T09:10:03;15.10;98.20
4374;DHT22;2201;51.100;6.814;2023-03-23T09:12:29;15.10;98.20
4374;DHT22;2201;51.100;6.814;2023-03-23T09:14:57;15.10;98.20
4374;DHT22;2201;51.100;6.814;2023-03-23T09:17:24;15.20;98.20
4374;DHT22;2201;51.100;6.814;2023-03-23T09:19:51;15.20;98.20
4374;DHT22;2201;51.100;6.814;2023-03-23T09:22:18;15.30;98.20
4374;DHT22;2201;51.100;6.814;2023-03-23T09:24:48;15.30;98.20
4374;DHT22;2201;51.100;6.814;2023-03-23T09:27:15;15.30;98.20
4374;DHT22;2201;51.100;6.814;2023-03-23T09:29:43;15.40;98.20
4374;DHT22;2201;51.100;6.814;2023-03-23T09:32:12;15.40;98.20
4374;DHT22;2201;51.100;6.814;2023-03-23T09:34:40;15.30;98.20
4374;DHT22;2201;51.100;6.814;2023-03-23T09:37:07;15.30;98.20
4374;DHT22;2201;51.100;6.814;2023-03-23T09:39:34;15.30;97.80
4374;DHT22;2201;51.100;6.814;2023-03-23T09:42:27;15.30;98.20
4374;DHT22;2201;51.100;6.814;2023-03-23T09:45:06;15.30;98.20
4374;DHT22;2201;51.100;6.814;2023-03-23T09:47:43;15.30;97.70
4374;DHT22;2201;51.100;6.814;2023-03-23T09:50:16;15.20;97.70
4374;DHT22;2201;51.100;6.814;2023-03-23T09:52:47;15.20;98.10
4374;DHT22;2201;51.100;6.814;2023-03-23T09:55:16;15.10;98.20
4374;DHT22;2201;51.100;6.814;2023-03-23T09:57:49;15.10;98.20
4374;DHT22;2201;51.100;6.814;2023-03-23T10:00:22;15.10;98.20
4374;DHT22;2201;51.100;6.814;2023-03-23T10:02:56;15.10;98.20
4374;DHT22;2201;51.100;6.814;2023-03-23T10:05:31;15.10;98.20
4374;DHT22;2201;51.100;6.814;2023-03-23T10:07:59;15.20;98.20
4374;DHT22;2201;51.100;6.814;2023-03-23T10:10:36;15.30;98.20
4374;DHT22;2201;51.100;6.814;2023-03-23T10:13:11;15.30;98.20
4374;DHT22;2201;51.100;6.814;2023-03-23T10:15:42;15.40;98.20
4374;DHT22;2201;51.100;6.814;2023-03-23T10:18:15;15.40;98.20
4374;DHT22;2201;51.100;6.814;2023-03-23T10:20:48;15.40;98.20
4374;DHT22;2201;51.100;6.814;2023-03-23T10:26:33;15.30;98.20
4374;DHT22;2201;51.100;6.814;2023-03-23T10:29:11;15.20;98.20
4374;DHT22;2201;51.100;6.814;2023-03-23T10:31:42;15.10;98.20
4374;DHT22;2201;51.100;6.814;2023-03-23T10:34:15;15.10;98.20
4374;DHT22;2201;51.100;6.814;2023-03-23T10:36:55;15.00;98.20
4374;DHT22;2201;51.100;6.814;2023-03-23T10:39:25;14.90;98.20
4374;DHT22;2201;51.100;6.814;2023-03-23T10:41:54;14.80;98.20
4374;DHT22;2201;51.100;6.814;2023-03-23T10:44:23;14.60;98.20
4374;DHT22;2201;51.100;6.814;2023-03-23T10:46:55;14.30;98.20
4374;DHT22;2201;51.100;6.814;2023-03-23T10:49:26;14.10;98.20
4374;DHT22;2201;51.100;6.814;2023-03-23T10:51:59;13.90;98.20
4374;DHT22;2201;51.100;6.814;2023-03-23T10:54:31;13.70;98.20
4374;DHT22;2201;51.100;6.814;2023-03-23T10:56:58;13.60;98.20
4374;DHT22;2201;51.100;6.814;2023-03-23T10:59:29;13.40;98.20
4374;DHT22;2201;51.100;6.814;2023-03-23T11:02:02;13.30;98.20
4374;DHT22;2201;51.100;6.814;2023-03-23T11:04:30;13.30;98.20
4374;DHT22;2201;51.100;6.814;2023-03-23T11:06:59;13.30;98.20
4374;DHT22;2201;51.100;6.814;2023-03-23T11:09:36;13.20;98.20
4374;DHT22;2201;51.100;6.814;2023-03-23T11:12:03;13.20;98.20
4374;DHT22;2201;51.100;6.814;2023-03-23T11:14:31;13.30;98.20
4374;DHT22;2201;51.100;6.814;2023-03-23T11:17:01;13.30;98.20
4374;DHT22;2201;51.100;6.814;2023-03-23T11:19:31;13.30;98.20
4374;DHT22;2201;51.100;6.814;2023-03-23T11:22:05;13.30;98.20
4374;DHT22;2201;51.100;6.814;2023-03-23T11:24:34;13.20;98.20
4374;DHT22;2201;51.100;6.814;2023-03-23T11:27:03;13.10;98.20
4374;DHT22;2201;51.100;6.814;2023-03-23T11:29:32;13.00;98.20
4374;DHT22;2201;51.100;6.814;2023-03-23T11:32:05;13.00;98.20
4374;DHT22;2201;51.100;6.814;2023-03-23T11:34:35;13.00;98.20
4374;DHT22;2201;51.100;6.814;2023-03-23T11:37:09;13.00;98.20
4374;DHT22;2201;51.100;6.814;2023-03-23T11:39:47;13.00;98.20
4374;DHT22;2201;51.100;6.814;2023-03-23T11:44:49;13.00;98.20
4374;DHT22;2201;51.100;6.814;2023-03-23T11:47:20;13.00;98.20
4374;DHT22;2201;51.100;6.814;2023-03-23T11:49:55;13.00;98.20
4374;DHT22;2201;51.100;6.814;2023-03-23T11:52:39;13.10;98.20
4374;DHT22;2201;51.100;6.814;2023-03-23T11:55:11;13.20;98.20
4374;DHT22;2201;51.100;6.814;2023-03-23T11:57:40;13.30;98.20
4374;DHT22;2201;51.100;6.814;2023-03-23T12:00:13;13.40;98.20
4374;DHT22;2201;51.100;6.814;2023-03-23T12:05:45;13.50;98.20
4374;DHT22;2201;51.100;6.814;2023-03-23T12:08:38;13.80;98.20
4374;DHT22;2201;51.100;6.814;2023-03-23T12:11:15;14.10;98.20
4374;DHT22;2201;51.100;6.814;2023-03-23T12:13:56;14.40;98.20
4374;DHT22;2201;51.100;6.814;2023-03-23T12:16:34;14.60;98.20
4374;DHT22;2201;51.100;6.814;2023-03-23T12:19:10;14.80;98.20
4374;DHT22;2201;51.100;6.814;2023-03-23T12:21:48;14.90;98.20
4374;DHT22;2201;51.100;6.814;2023-03-23T12:24:28;14.90;98.20
4374;DHT22;2201;51.100;6.814;2023-03-23T12:27:02;15.10;98.20
4374;DHT22;2201;51.100;6.814;2023-03-23T12:29:49;15.30;98.20
4374;DHT22;2201;51.100;6.814;2023-03-23T12:32:29;15.60;98.20
4374;DHT22;2201;51.100;6.814;2023-03-23T12:35:14;16.00;98.20
4374;DHT22;2201;51.100;6.814;2023-03-23T12:37:53;16.30;98.20
4374;DHT22;2201;51.100;6.814;2023-03-23T12:40:42;16.50;98.20
4374;DHT22;2201;51.100;6.814;2023-03-23T12:43:15;16.60;98.20
4374;DHT22;2201;51.100;6.814;2023-03-23T12:46:00;16.70;98.20
4374;DHT22;2201;51.100;6.814;2023-03-23T12:48:32;16.80;98.20
4374;DHT22;2201;51.100;6.814;2023-03-23T12:51:07;16.90;98.20
4374;DHT22;2201;51.100;6.814;2023-03-23T12:53:42;16.90;98.20
4374;DHT22;2201;51.100;6.814;2023-03-23T12:56:14;16.70;98.20
4374;DHT22;2201;51.100;6.814;2023-03-23T12:58:46;16.60;98.20
4374;DHT22;2201;51.100;6.814;2023-03-23T13:01:16;16.40;98.20
4374;DHT22;2201;51.100;6.814;2023-03-23T13:03:51;16.20;98.20
4374;DHT22;2201;51.100;6.814;2023-03-23T13:06:23;15.90;98.20
4374;DHT22;2201;51.100;6.814;2023-03-23T13:08:57;15.70;98.20
4374;DHT22;2201;51.100;6.814;2023-03-23T13:11:30;15.60;98.20
4374;DHT22;2201;51.100;6.814;2023-03-23T13:14:06;15.50;98.20
4374;DHT22;2201;51.100;6.814;2023-03-23T13:16:40;15.40;98.20
4374;DHT22;2201;51.100;6.814;2023-03-23T13:19:13;15.30;98.20
4374;DHT22;2201;51.100;6.814;2023-03-23T13:21:45;15.30;98.20
4374;DHT22;2201;51.100;6.814;2023-03-23T13:24:17;15.30;98.20
4374;DHT22;2201;51.100;6.814;2023-03-23T13:26:45;15.30;98.20
4374;DHT22;2201;51.100;6.814;2023-03-23T13:29:15;15.30;98.20
4374;DHT22;2201;51.100;6.814;2023-03-23T13:31:44;15.30;98.20
4374;DHT22;2201;51.100;6.814;2023-03-23T13:34:16;15.30;98.20
4374;DHT22;2201;51.100;6.814;2023-03-23T13:36:54;15.30;98.20
4374;DHT22;2201;51.100;6.814;2023-03-23T13:39:25;15.30;98.20
4374;DHT22;2201;51.100;6.814;2023-03-23T13:42:02;15.30;98.20
4374;DHT22;2201;51.100;6.814;2023-03-23T13:44:42;15.30;98.20
4374;DHT22;2201;51.100;6.814;2023-03-23T13:47:25;15.20;98.20
4374;DHT22;2201;51.100;6.814;2023-03-23T13:49:55;15.20;98.20
4374;DHT22;2201;51.100;6.814;2023-03-23T13:52:24;15.10;98.20
4374;DHT22;2201;51.100;6.814;2023-03-23T13:55:16;15.10;98.20
4374;DHT22;2201;51.100;6.814;2023-03-23T13:57:50;15.00;98.20
4374;DHT22;2201;51.100;6.814;2023-03-23T14:00:34;14.80;98.20
4374;DHT22;2201;51.100;6.814;2023-03-23T14:03:03;14.70;98.20
4374;DHT22;2201;51.100;6.814;2023-03-23T14:05:34;14.60;98.20
4374;DHT22;2201;51.100;6.814;2023-03-23T14:08:03;14.50;98.20
4374;DHT22;2201;51.100;6.814;2023-03-23T14:10:39;14.50;98.20
4374;DHT22;2201;51.100;6.814;2023-03-23T14:13:16;14.60;98.20
4374;DHT22;2201;51.100;6.814;2023-03-23T14:15:53;14.60;98.20
4374;DHT22;2201;51.100;6.814;2023-03-23T14:18:22;14.60;98.20
4374;DHT22;2201;51.100;6.814;2023-03-23T14:20:50;14.60;98.20
4374;DHT22;2201;51.100;6.814;2023-03-23T14:23:18;14.70;98.20
4374;DHT22;2201;51.100;6.814;2023-03-23T14:25:56;14.70;98.20
4374;DHT22;2201;51.100;6.814;2023-03-23T14:28:31;14.90;98.20
4374;DHT22;2201;51.100;6.814;2023-03-23T14:30:59;15.10;98.20
4374;DHT22;2201;51.100;6.814;2023-03-23T14:33:26;15.30;98.20
4374;DHT22;2201;51.100;6.814;2023-03-23T14:35:54;15.40;98.20
4374;DHT22;2201;51.100;6.814;2023-03-23T14:38:24;15.40;98.20
4374;DHT22;2201;51.100;6.814;2023-03-23T14:41:00;15.30;98.20
4374;DHT22;2201;51.100;6.814;2023-03-23T14:43:28;15.20;98.20
4374;DHT22;2201;51.100;6.814;2023-03-23T14:45:58;15.10;98.20
4374;DHT22;2201;51.100;6.814;2023-03-23T14:48:26;15.00;98.20
4374;DHT22;2201;51.100;6.814;2023-03-23T14:50:56;15.00;98.20
4374;DHT22;2201;51.100;6.814;2023-03-23T14:53:25;14.90;98.20
4374;DHT22;2201;51.100;6.814;2023-03-23T14:55:55;14.90;98.20
4374;DHT22;2201;51.100;6.814;2023-03-23T14:58:23;14.80;98.20
4374;DHT22;2201;51.100;6.814;2023-03-23T15:00:54;14.70;98.20
4374;DHT22;2201;51.100;6.814;2023-03-23T15:03:22;14.70;98.20
4374;DHT22;2201;51.100;6.814;2023-03-23T15:05:53;14.60;98.20
4374;DHT22;2201;51.100;6.814;2023-03-23T15:08:24;14.60;98.20
4374;DHT22;2201;51.100;6.814;2023-03-23T15:11:04;14.60;98.20
4374;DHT22;2201;51.100;6.814;2023-03-23T15:13:31;14.60;98.20
4374;DHT22;2201;51.100;6.814;2023-03-23T15:16:07;14.70;98.20
4374;DHT22;2201;51.100;6.814;2023-03-23T15:18:39;15.00;98.20
4374;DHT22;2201;51.100;6.814;2023-03-23T15:21:12;15.20;98.20
4374;DHT22;2201;51.100;6.814;2023-03-23T15:23:53;15.50;98.20
4374;DHT22;2201;51.100;6.814;2023-03-23T15:26:43;15.60;98.20
4374;DHT22;2201;51.100;6.814;2023-03-23T15:29:16;15.80;98.20
4374;DHT22;2201;51.100;6.814;2023-03-23T15:31:45;15.90;98.20
4374;DHT22;2201;51.100;6.814;2023-03-23T15:34:21;15.90;98.20
4374;DHT22;2201;51.100;6.814;2023-03-23T15:36:54;15.90;98.20
4374;DHT22;2201;51.100;6.814;2023-03-23T15:39:22;16.00;98.20
4374;DHT22;2201;51.100;6.814;2023-03-23T15:41:51;16.00;98.20
4374;DHT22;2201;51.100;6.814;2023-03-23T15:44:28;15.90;98.20
4374;DHT22;2201;51.100;6.814;2023-03-23T15:47:16;15.90;98.20
4374;DHT22;2201;51.100;6.814;2023-03-23T15:49:44;15.90;98.20
4374;DHT22;2201;51.100;6.814;2023-03-23T15:52:13;15.80;98.20
4374;DHT22;2201;51.100;6.814;2023-03-23T15:54:46;15.70;98.20
4374;DHT22;2201;51.100;6.814;2023-03-23T15:57:14;15.70;98.20
4374;DHT22;2201;51.100;6.814;2023-03-23T15:59:41;15.70;98.20
4374;DHT22;2201;51.100;6.814;2023-03-23T16:02:19;15.70;98.20
4374;DHT22;2201;51.100;6.814;2023-03-23T16:04:47;15.70;98.20
4374;DHT22;2201;51.100;6.814;2023-03-23T16:07:14;15.80;98.20
4374;DHT22;2201;51.100;6.814;2023-03-23T16:09:41;15.80;98.20
4374;DHT22;2201;51.100;6.814;2023-03-23T16:12:10;15.80;98.20
4374;DHT22;2201;51.100;6.814;2023-03-23T16:14:40;15.80;98.20
4374;DHT22;2201;51.100;6.814;2023-03-23T16:17:10;15.80;98.20
4374;DHT22;2201;51.100;6.814;2023-03-23T16:19:38;15.80;98.20
4374;DHT22;2201;51.100;6.814;2023-03-23T16:22:05;15.80;98.20
4374;DHT22;2201;51.100;6.814;2023-03-23T16:24:32;15.80;98.20
4374;DHT22;2201;51.100;6.814;2023-03-23T16:26:58;15.90;98.20
4374;DHT22;2201;51.100;6.814;2023-03-23T16:29:25;15.80;98.20
4374;DHT22;2201;51.100;6.814;2023-03-23T16:31:54;15.80;98.20
4374;DHT22;2201;51.100;6.814;2023-03-23T16:34:21;15.80;98.20
4374;DHT22;2201;51.100;6.814;2023-03-23T16:36:48;15.80;98.20
4374;DHT22;2201;51.100;6.814;2023-03-23T16:39:15;15.80;98.20
4374;DHT22;2201;51.100;6.814;2023-03-23T16:41:43;15.80;98.20
4374;DHT22;2201;51.100;6.814;2023-03-23T16:44:10;15.70;98.20
4374;DHT22;2201;51.100;6.814;2023-03-23T16:46:37;15.70;98.20
4374;DHT22;2201;51.100;6.814;2023-03-23T16:49:05;15.60;98.20
4374;DHT22;2201;51.100;6.814;2023-03-23T16:51:32;15.60;98.20
4374;DHT22;2201;51.100;6.814;2023-03-23T16:53:58;15.50;98.20
4374;DHT22;2201;51.100;6.814;2023-03-23T16:56:25;15.50;98.20
4374;DHT22;2201;51.100;6.814;2023-03-23T16:58:52;15.40;98.20
4374;DHT22;2201;51.100;6.814;2023-03-23T17:01:19;15.40;98.20
4374;DHT22;2201;51.100;6.814;2023-03-23T17:03:45;15.40;98.20
4374;DHT22;2201;51.100;6.814;2023-03-23T17:06:14;15.30;98.20
4374;DHT22;2201;51.100;6.814;2023-03-23T17:08:40;15.30;98.20
4374;DHT22;2201;51.100;6.814;2023-03-23T17:11:07;15.30;98.20
4374;DHT22;2201;51.100;6.814;2023-03-23T17:13:35;15.20;98.20
4374;DHT22;2201;51.100;6.814;2023-03-23T17:16:04;15.20;98.20
4374;DHT22;2201;51.100;6.814;2023-03-23T17:18:31;15.20;98.20
4374;DHT22;2201;51.100;6.814;2023-03-23T17:21:00;15.20;98.20
4374;DHT22;2201;51.100;6.814;2023-03-23T17:23:29;15.10;98.20
4374;DHT22;2201;51.100;6.814;2023-03-23T17:25:55;15.10;98.20
4374;DHT22;2201;51.100;6.814;2023-03-23T17:28:22;15.10;98.20
4374;DHT22;2201;51.100;6.814;2023-03-23T17:30:50;15.10;98.20
4374;DHT22;2201;51.100;6.814;2023-03-23T17:33:17;15.00;98.20
4374;DHT22;2201;51.100;6.814;2023-03-23T17:35:45;15.00;98.20
4374;DHT22;2201;51.100;6.814;2023-03-23T17:38:24;14.90;98.20
4374;DHT22;2201;51.100;6.814;2023-03-23T17:41:06;14.80;98.20
4374;DHT22;2201;51.100;6.814;2023-03-23T17:43:36;14.80;98.20
4374;DHT22;2201;51.100;6.814;2023-03-23T17:46:05;14.70;98.20
4374;DHT22;2201;51.100;6.814;2023-03-23T17:48:32;14.60;98.20
4374;DHT22;2201;51.100;6.814;2023-03-23T17:50:59;14.60;98.20
4374;DHT22;2201;51.100;6.814;2023-03-23T17:53:27;14.50;98.20
4374;DHT22;2201;51.100;6.814;2023-03-23T17:55:55;14.40;98.20
4374;DHT22;2201;51.100;6.814;2023-03-23T17:58:24;14.40;98.20
4374;DHT22;2201;51.100;6.814;2023-03-23T18:00:52;14.30;98.20
4374;DHT22;2201;51.100;6.814;2023-03-23T18:03:19;14.30;98.20
4374;DHT22;2201;51.100;6.814;2023-03-23T18:05:46;14.20;98.20
4374;DHT22;2201;51.100;6.814;2023-03-23T18:08:13;14.20;98.20
4374;DHT22;2201;51.100;6.814;2023-03-23T18:10:40;14.10;98.20
4374;DHT22;2201;51.100;6.814;2023-03-23T18:13:07;14.10;98.20
4374;DHT22;2201;51.100;6.814;2023-03-23T18:15:36;14.00;98.20
4374;DHT22;2201;51.100;6.814;2023-03-23T18:18:04;14.00;98.20
4374;DHT22;2201;51.100;6.814;2023-03-23T18:20:31;13.90;98.20
4374;DHT22;2201;51.100;6.814;2023-03-23T18:22:58;13.90;98.20
4374;DHT22;2201;51.100;6.814;2023-03-23T18:25:25;13.90;98.20
4374;DHT22;2201;51.100;6.814;2023-03-23T18:27:52;13.90;98.20
4374;DHT22;2201;51.100;6.814;2023-03-23T18:30:19;13.90;98.20
4374;DHT22;2201;51.100;6.814;2023-03-23T18:32:47;13.80;98.20
4374;DHT22;2201;51.100;6.814;2023-03-23T18:35:14;13.80;98.20
4374;DHT22;2201;51.100;6.814;2023-03-23T18:37:41;13.80;98.20
4374;DHT22;2201;51.100;6.814;2023-03-23T18:40:11;13.70;98.20
4374;DHT22;2201;51.100;6.814;2023-03-23T18:42:40;13.70;98.20
4374;DHT22;2201;51.100;6.814;2023-03-23T18:45:09;13.70;98.20
4374;DHT22;2201;51.100;6.814;2023-03-23T18:47:36;13.70;98.20
4374;DHT22;2201;51.100;6.814;2023-03-23T18:50:05;13.70;98.20
4374;DHT22;2201;51.100;6.814;2023-03-23T18:52:33;13.60;98.20
4374;DHT22;2201;51.100;6.814;2023-03-23T18:55:00;13.60;98.20
4374;DHT22;2201;51.100;6.814;2023-03-23T18:57:27;13.60;98.20
4374;DHT22;2201;51.100;6.814;2023-03-23T18:59:54;13.60;98.20
4374;DHT22;2201;51.100;6.814;2023-03-23T19:02:21;13.60;98.20
4374;DHT22;2201;51.100;6.814;2023-03-23T19:04:48;13.70;98.20
4374;DHT22;2201;51.100;6.814;2023-03-23T19:07:17;13.70;98.20
4374;DHT22;2201;51.100;6.814;2023-03-23T19:09:47;13.70;98.20
4374;DHT22;2201;51.100;6.814;2023-03-23T19:12:14;13.70;98.20
4374;DHT22;2201;51.100;6.814;2023-03-23T19:14:41;13.70;98.20
4374;DHT22;2201;51.100;6.814;2023-03-23T19:17:08;13.60;98.20
4374;DHT22;2201;51.100;6.814;2023-03-23T19:19:35;13.70;98.20
4374;DHT22;2201;51.100;6.814;2023-03-23T19:22:04;13.70;98.20
4374;DHT22;2201;51.100;6.814;2023-03-23T19:24:42;13.70;98.20
4374;DHT22;2201;51.100;6.814;2023-03-23T19:27:09;13.70;98.20
4374;DHT22;2201;51.100;6.814;2023-03-23T19:29:36;13.70;98.20
4374;DHT22;2201;51.100;6.814;2023-03-23T19:32:03;13.70;98.20
4374;DHT22;2201;51.100;6.814;2023-03-23T19:34:30;13.70;98.20
4374;DHT22;2201;51.100;6.814;2023-03-23T19:36:58;13.70;98.20
4374;DHT22;2201;51.100;6.814;2023-03-23T19:39:25;13.80;98.20
4374;DHT22;2201;51.100;6.814;2023-03-23T19:41:53;13.80;98.20
4374;DHT22;2201;51.100;6.814;2023-03-23T19:44:21;13.80;98.20
4374;DHT22;2201;51.100;6.814;2023-03-23T19:46:48;13.80;98.20
4374;DHT22;2201;51.100;6.814;2023-03-23T19:49:16;13.80;98.20
4374;DHT22;2201;51.100;6.814;2023-03-23T19:51:43;13.80;98.20
4374;DHT22;2201;51.100;6.814;2023-03-23T19:54:10;13.80;98.20
4374;DHT22;2201;51.100;6.814;2023-03-23T19:56:37;13.80;98.20
4374;DHT22;2201;51.100;6.814;2023-03-23T19:59:06;13.80;98.20
4374;DHT22;2201;51.100;6.814;2023-03-23T20:01:34;13.80;98.20
4374;DHT22;2201;51.100;6.814;2023-03-23T20:04:01;13.80;98.20
4374;DHT22;2201;51.100;6.814;2023-03-23T20:06:29;13.80;98.20
4374;DHT22;2201;51.100;6.814;2023-03-23T20:08:56;13.80;98.20
4374;DHT22;2201;51.100;6.814;2023-03-23T20:11:23;13.80;98.20
4374;DHT22;2201;51.100;6.814;2023-03-23T20:13:50;13.80;98.20
4374;DHT22;2201;51.100;6.814;2023-03-23T20:16:18;13.90;98.20
4374;DHT22;2201;51.100;6.814;2023-03-23T20:18:45;13.90;98.20
4374;DHT22;2201;51.100;6.814;2023-03-23T20:21:14;13.90;98.20
4374;DHT22;2201;51.100;6.814;2023-03-23T20:23:41;13.90;98.20
4374;DHT22;2201;51.100;6.814;2023-03-23T20:26:11;13.90;98.20
4374;DHT22;2201;51.100;6.814;2023-03-23T20:28:39;13.90;98.20
4374;DHT22;2201;51.100;6.814;2023-03-23T20:31:09;13.90;98.20
4374;DHT22;2201;51.100;6.814;2023-03-23T20:33:38;13.90;98.20
4374;DHT22;2201;51.100;6.814;2023-03-23T20:36:06;13.90;98.20
4374;DHT22;2201;51.100;6.814;2023-03-23T20:38:34;13.90;98.20
4374;DHT22;2201;51.100;6.814;2023-03-23T20:41:04;13.90;98.20
4374;DHT22;2201;51.100;6.814;2023-03-23T20:43:34;13.90;98.20
4374;DHT22;2201;51.100;6.814;2023-03-23T20:46:02;13.90;98.20
4374;DHT22;2201;51.100;6.814;2023-03-23T20:48:31;13.90;98.20
4374;DHT22;2201;51.100;6.814;2023-03-23T20:51:01;13.90;98.20
4374;DHT22;2201;51.100;6.814;2023-03-23T20:53:29;13.90;98.20
4374;DHT22;2201;51.100;6.814;2023-03-23T20:55:59;13.90;98.20
4374;DHT22;2201;51.100;6.814;2023-03-23T20:58:27;13.90;98.20
4374;DHT22;2201;51.100;6.814;2023-03-23T21:00:57;13.90;98.20
4374;DHT22;2201;51.100;6.814;2023-03-23T21:03:27;13.90;98.20
4374;DHT22;2201;51.100;6.814;2023-03-23T21:05:54;13.90;98.20
4374;DHT22;2201;51.100;6.814;2023-03-23T21:08:23;13.90;98.20
4374;DHT22;2201;51.100;6.814;2023-03-23T21:10:50;13.90;98.20
4374;DHT22;2201;51.100;6.814;2023-03-23T21:13:17;13.90;98.20
4374;DHT22;2201;51.100;6.814;2023-03-23T21:15:44;13.90;98.20
4374;DHT22;2201;51.100;6.814;2023-03-23T21:18:11;13.90;98.20
4374;DHT22;2201;51.100;6.814;2023-03-23T21:20:38;13.90;98.20
4374;DHT22;2201;51.100;6.814;2023-03-23T21:23:16;13.90;98.20
4374;DHT22;2201;51.100;6.814;2023-03-23T21:26:01;13.80;98.20
4374;DHT22;2201;51.100;6.814;2023-03-23T21:28:28;13.80;98.20
4374;DHT22;2201;51.100;6.814;2023-03-23T21:30:59;13.80;98.20
4374;DHT22;2201;51.100;6.814;2023-03-23T21:33:26;13.80;98.20
4374;DHT22;2201;51.100;6.814;2023-03-23T21:35:53;13.70;98.20
4374;DHT22;2201;51.100;6.814;2023-03-23T21:38:21;13.70;98.20
4374;DHT22;2201;51.100;6.814;2023-03-23T21:40:51;13.70;98.20
4374;DHT22;2201;51.100;6.814;2023-03-23T21:43:19;13.70;98.20
4374;DHT22;2201;51.100;6.814;2023-03-23T21:45:53;13.60;98.20
4374;DHT22;2201;51.100;6.814;2023-03-23T21:48:21;13.60;98.20
4374;DHT22;2201;51.100;6.814;2023-03-23T21:50:48;13.60;98.20
4374;DHT22;2201;51.100;6.814;2023-03-23T21:53:15;13.60;98.20
4374;DHT22;2201;51.100;6.814;2023-03-23T21:55:44;13.60;98.20
4374;DHT22;2201;51.100;6.814;2023-03-23T21:58:15;13.60;98.20
4374;DHT22;2201;51.100;6.814;2023-03-23T22:00:45;13.50;98.20
4374;DHT22;2201;51.100;6.814;2023-03-23T22:03:14;13.50;98.20
4374;DHT22;2201;51.100;6.814;2023-03-23T22:05:43;13.50;98.20
4374;DHT22;2201;51.100;6.814;2023-03-23T22:08:10;13.50;98.20
4374;DHT22;2201;51.100;6.814;2023-03-23T22:10:39;13.50;98.20
4374;DHT22;2201;51.100;6.814;2023-03-23T22:13:06;13.50;98.20
4374;DHT22;2201;51.100;6.814;2023-03-23T22:15:34;13.50;98.20
4374;DHT22;2201;51.100;6.814;2023-03-23T22:18:02;13.40;98.20
4374;DHT22;2201;51.100;6.814;2023-03-23T22:20:29;13.40;98.20
4374;DHT22;2201;51.100;6.814;2023-03-23T22:22:57;13.40;98.20
4374;DHT22;2201;51.100;6.814;2023-03-23T22:25:23;13.40;98.20
4374;DHT22;2201;51.100;6.814;2023-03-23T22:27:50;13.40;98.20
4374;DHT22;2201;51.100;6.814;2023-03-23T22:30:20;13.40;98.20
4374;DHT22;2201;51.100;6.814;2023-03-23T22:32:48;13.30;98.20
4374;DHT22;2201;51.100;6.814;2023-03-23T22:35:16;13.30;98.20
4374;DHT22;2201;51.100;6.814;2023-03-23T22:37:43;13.30;98.20
4374;DHT22;2201;51.100;6.814;2023-03-23T22:40:10;13.30;98.20
4374;DHT22;2201;51.100;6.814;2023-03-23T22:42:38;13.30;98.20
4374;DHT22;2201;51.100;6.814;2023-03-23T22:45:05;13.30;98.20
4374;DHT22;2201;51.100;6.814;2023-03-23T22:47:34;13.20;98.20
4374;DHT22;2201;51.100;6.814;2023-03-23T22:50:03;13.20;98.20